Wilsall, Montana
Current Conditions -  °F | °C
As of 10:53 PM on Wednesday 28 Jan 2015 (Local Time) from KLVM Reporting Station
Clear Clear  
Wind Chill: 33°   Ceiling: Unl
Heat Index: 33°   Visibility: 10mi
Dew Point: 25°   Wind: 3mph
Humidity: 72%   Direction: 120°ESE
Pressure: 30.39"   Gusts: NA
Location:  45.99°N, 110.66°W
Report Text: KLVM 290553Z AUTO 12003KT 10SM CLR 01/M04 A3039 RMK AO2 SLP302 T00061039 10078 21006 51012
Loading
Personal Weather Stations






























Interactive Weather Map New forecast layout! Learn more

10-Day Weather Forecast

Advertisements
Track Severe Weather on mobile